sensor_id;sensor_type;location;lat;lon;timestamp;P1;durP1;ratioP1;P2;durP2;ratioP2
49626;SDS011;35527;54.616;39.786;2024-03-02T00:00:48;24.05;;;10.90;;
49626;SDS011;35527;54.616;39.786;2024-03-02T00:03:51;20.95;;;9.75;;
49626;SDS011;35527;54.616;39.786;2024-03-02T00:06:56;25.38;;;11.00;;
49626;SDS011;35527;54.616;39.786;2024-03-02T00:09:59;25.95;;;11.15;;
49626;SDS011;35527;54.616;39.786;2024-03-02T00:13:04;25.00;;;10.40;;
49626;SDS011;35527;54.616;39.786;2024-03-02T00:16:09;29.83;;;11.30;;
49626;SDS011;35527;54.616;39.786;2024-03-02T00:19:13;22.25;;;9.63;;
49626;SDS011;35527;54.616;39.786;2024-03-02T00:22:17;25.90;;;9.38;;
49626;SDS011;35527;54.616;39.786;2024-03-02T00:25:26;24.08;;;10.82;;
49626;SDS011;35527;54.616;39.786;2024-03-02T00:28:30;24.00;;;9.97;;
49626;SDS011;35527;54.616;39.786;2024-03-02T00:31:38;24.38;;;9.77;;
49626;SDS011;35527;54.616;39.786;2024-03-02T00:34:41;21.45;;;9.90;;
49626;SDS011;35527;54.616;39.786;2024-03-02T00:37:43;23.88;;;9.80;;
49626;SDS011;35527;54.616;39.786;2024-03-02T00:40:47;17.90;;;9.32;;
49626;SDS011;35527;54.616;39.786;2024-03-02T00:47:00;21.65;;;10.50;;
49626;SDS011;35527;54.616;39.786;2024-03-02T00:50:05;28.27;;;11.73;;
49626;SDS011;35527;54.616;39.786;2024-03-02T00:53:10;22.60;;;10.00;;
49626;SDS011;35527;54.616;39.786;2024-03-02T00:56:15;32.45;;;10.63;;
49626;SDS011;35527;54.616;39.786;2024-03-02T00:59:20;29.58;;;10.65;;
49626;SDS011;35527;54.616;39.786;2024-03-02T01:02:24;28.52;;;10.35;;
49626;SDS011;35527;54.616;39.786;2024-03-02T01:05:26;28.75;;;11.80;;
49626;SDS011;35527;54.616;39.786;2024-03-02T01:08:29;27.85;;;11.40;;
49626;SDS011;35527;54.616;39.786;2024-03-02T01:11:31;28.65;;;11.95;;
49626;SDS011;35527;54.616;39.786;2024-03-02T01:14:37;26.38;;;11.18;;
49626;SDS011;35527;54.616;39.786;2024-03-02T01:17:41;31.40;;;11.95;;
49626;SDS011;35527;54.616;39.786;2024-03-02T01:20:43;52.70;;;30.42;;
49626;SDS011;35527;54.616;39.786;2024-03-02T01:23:45;26.55;;;12.35;;
49626;SDS011;35527;54.616;39.786;2024-03-02T01:26:48;47.97;;;30.50;;
49626;SDS011;35527;54.616;39.786;2024-03-02T01:29:51;29.95;;;12.52;;
49626;SDS011;35527;54.616;39.786;2024-03-02T01:32:55;24.52;;;11.38;;
49626;SDS011;35527;54.616;39.786;2024-03-02T01:35:59;28.38;;;12.60;;
49626;SDS011;35527;54.616;39.786;2024-03-02T01:39:03;27.98;;;12.73;;
49626;SDS011;35527;54.616;39.786;2024-03-02T01:42:11;24.73;;;11.43;;
49626;SDS011;35527;54.616;39.786;2024-03-02T01:45:15;38.25;;;27.48;;
49626;SDS011;35527;54.616;39.786;2024-03-02T01:48:18;24.90;;;11.57;;
49626;SDS011;35527;54.616;39.786;2024-03-02T01:54:28;28.35;;;12.40;;
49626;SDS011;35527;54.616;39.786;2024-03-02T01:57:30;25.48;;;11.70;;
49626;SDS011;35527;54.616;39.786;2024-03-02T02:00:32;28.60;;;11.63;;
49626;SDS011;35527;54.616;39.786;2024-03-02T02:03:38;28.67;;;11.68;;
49626;SDS011;35527;54.616;39.786;2024-03-02T02:06:46;22.90;;;10.75;;
49626;SDS011;35527;54.616;39.786;2024-03-02T02:09:51;30.38;;;12.82;;
49626;SDS011;35527;54.616;39.786;2024-03-02T02:12:54;32.85;;;12.13;;
49626;SDS011;35527;54.616;39.786;2024-03-02T02:16:04;25.38;;;12.30;;
49626;SDS011;35527;54.616;39.786;2024-03-02T02:19:12;25.90;;;10.77;;
49626;SDS011;35527;54.616;39.786;2024-03-02T02:22:17;29.90;;;12.13;;
49626;SDS011;35527;54.616;39.786;2024-03-02T02:25:20;29.73;;;12.43;;
49626;SDS011;35527;54.616;39.786;2024-03-02T02:28:28;29.45;;;12.77;;
49626;SDS011;35527;54.616;39.786;2024-03-02T02:31:38;25.02;;;12.00;;
49626;SDS011;35527;54.616;39.786;2024-03-02T02:34:41;33.92;;;12.65;;
49626;SDS011;35527;54.616;39.786;2024-03-02T02:37:47;30.27;;;13.88;;
49626;SDS011;35527;54.616;39.786;2024-03-02T02:40:50;29.85;;;14.00;;
49626;SDS011;35527;54.616;39.786;2024-03-02T02:43:57;30.80;;;12.02;;
49626;SDS011;35527;54.616;39.786;2024-03-02T02:47:02;23.33;;;13.05;;
49626;SDS011;35527;54.616;39.786;2024-03-02T02:50:06;28.50;;;12.85;;
49626;SDS011;35527;54.616;39.786;2024-03-02T02:56:16;27.42;;;13.48;;
49626;SDS011;35527;54.616;39.786;2024-03-02T02:59:21;24.90;;;12.25;;
49626;SDS011;35527;54.616;39.786;2024-03-02T03:02:24;32.42;;;12.75;;
49626;SDS011;35527;54.616;39.786;2024-03-02T03:05:28;32.67;;;12.25;;
49626;SDS011;35527;54.616;39.786;2024-03-02T03:08:32;31.52;;;13.20;;
49626;SDS011;35527;54.616;39.786;2024-03-02T03:11:35;30.88;;;12.93;;
49626;SDS011;35527;54.616;39.786;2024-03-02T03:14:40;30.33;;;13.68;;
49626;SDS011;35527;54.616;39.786;2024-03-02T03:17:44;27.05;;;12.73;;
49626;SDS011;35527;54.616;39.786;2024-03-02T03:20:52;30.58;;;14.05;;
49626;SDS011;35527;54.616;39.786;2024-03-02T03:23:57;29.45;;;13.73;;
49626;SDS011;35527;54.616;39.786;2024-03-02T03:26:59;28.98;;;12.70;;
49626;SDS011;35527;54.616;39.786;2024-03-02T03:30:03;34.72;;;13.43;;
49626;SDS011;35527;54.616;39.786;2024-03-02T03:36:37;32.28;;;13.80;;
49626;SDS011;35527;54.616;39.786;2024-03-02T03:39:39;38.13;;;15.15;;
49626;SDS011;35527;54.616;39.786;2024-03-02T03:45:48;35.17;;;12.60;;
49626;SDS011;35527;54.616;39.786;2024-03-02T03:48:52;30.27;;;13.48;;
49626;SDS011;35527;54.616;39.786;2024-03-02T03:51:55;27.05;;;12.38;;
49626;SDS011;35527;54.616;39.786;2024-03-02T03:54:59;30.85;;;14.05;;
49626;SDS011;35527;54.616;39.786;2024-03-02T03:58:11;30.27;;;13.68;;
49626;SDS011;35527;54.616;39.786;2024-03-02T04:01:14;26.73;;;12.50;;
49626;SDS011;35527;54.616;39.786;2024-03-02T04:04:17;31.50;;;13.43;;
49626;SDS011;35527;54.616;39.786;2024-03-02T04:07:19;30.42;;;13.25;;
49626;SDS011;35527;54.616;39.786;2024-03-02T04:10:24;27.13;;;13.63;;
49626;SDS011;35527;54.616;39.786;2024-03-02T04:13:26;31.70;;;13.50;;
49626;SDS011;35527;54.616;39.786;2024-03-02T04:16:29;33.35;;;14.25;;
49626;SDS011;35527;54.616;39.786;2024-03-02T04:22:39;28.85;;;12.02;;
49626;SDS011;35527;54.616;39.786;2024-03-02T04:25:41;26.05;;;11.20;;
49626;SDS011;35527;54.616;39.786;2024-03-02T04:28:44;27.20;;;12.32;;
49626;SDS011;35527;54.616;39.786;2024-03-02T04:31:48;28.80;;;13.00;;
49626;SDS011;35527;54.616;39.786;2024-03-02T04:34:56;32.03;;;13.43;;
49626;SDS011;35527;54.616;39.786;2024-03-02T04:38:00;33.55;;;13.90;;
49626;SDS011;35527;54.616;39.786;2024-03-02T04:41:06;32.78;;;14.55;;
49626;SDS011;35527;54.616;39.786;2024-03-02T04:44:09;32.15;;;12.48;;
49626;SDS011;35527;54.616;39.786;2024-03-02T04:47:14;29.23;;;12.98;;
49626;SDS011;35527;54.616;39.786;2024-03-02T04:53:21;27.65;;;13.23;;
49626;SDS011;35527;54.616;39.786;2024-03-02T04:56:24;27.10;;;11.68;;
49626;SDS011;35527;54.616;39.786;2024-03-02T04:59:53;26.17;;;12.38;;
49626;SDS011;35527;54.616;39.786;2024-03-02T05:02:58;27.35;;;13.25;;
49626;SDS011;35527;54.616;39.786;2024-03-02T05:06:01;28.90;;;14.02;;
49626;SDS011;35527;54.616;39.786;2024-03-02T05:09:05;30.02;;;22.08;;
49626;SDS011;35527;54.616;39.786;2024-03-02T05:12:09;29.08;;;13.25;;
49626;SDS011;35527;54.616;39.786;2024-03-02T05:15:18;28.77;;;13.68;;
49626;SDS011;35527;54.616;39.786;2024-03-02T05:18:21;28.90;;;22.13;;
49626;SDS011;35527;54.616;39.786;2024-03-02T05:21:24;25.00;;;13.27;;
49626;SDS011;35527;54.616;39.786;2024-03-02T05:27:34;30.10;;;14.68;;
49626;SDS011;35527;54.616;39.786;2024-03-02T05:30:36;36.47;;;15.77;;
49626;SDS011;35527;54.616;39.786;2024-03-02T05:33:39;39.92;;;18.00;;
49626;SDS011;35527;54.616;39.786;2024-03-02T05:36:46;29.27;;;16.02;;
49626;SDS011;35527;54.616;39.786;2024-03-02T05:39:52;29.30;;;23.77;;
49626;SDS011;35527;54.616;39.786;2024-03-02T05:42:56;28.43;;;15.53;;
49626;SDS011;35527;54.616;39.786;2024-03-02T05:45:58;28.00;;;22.90;;
49626;SDS011;35527;54.616;39.786;2024-03-02T05:49:02;29.63;;;23.63;;
49626;SDS011;35527;54.616;39.786;2024-03-02T05:52:06;30.15;;;24.75;;
49626;SDS011;35527;54.616;39.786;2024-03-02T05:55:13;31.70;;;24.45;;
49626;SDS011;35527;54.616;39.786;2024-03-02T05:58:16;32.08;;;25.83;;
49626;SDS011;35527;54.616;39.786;2024-03-02T06:01:58;30.55;;;24.63;;
49626;SDS011;35527;54.616;39.786;2024-03-02T06:05:12;29.83;;;23.75;;
49626;SDS011;35527;54.616;39.786;2024-03-02T06:08:18;26.27;;;22.15;;
49626;SDS011;35527;54.616;39.786;2024-03-02T06:11:21;26.73;;;21.65;;
49626;SDS011;35527;54.616;39.786;2024-03-02T06:14:33;29.33;;;22.10;;
49626;SDS011;35527;54.616;39.786;2024-03-02T06:17:39;27.45;;;21.92;;
49626;SDS011;35527;54.616;39.786;2024-03-02T06:20:41;28.60;;;22.67;;
49626;SDS011;35527;54.616;39.786;2024-03-02T06:23:47;27.45;;;21.80;;
49626;SDS011;35527;54.616;39.786;2024-03-02T06:26:52;27.02;;;22.23;;
49626;SDS011;35527;54.616;39.786;2024-03-02T06:29:56;25.38;;;20.58;;
49626;SDS011;35527;54.616;39.786;2024-03-02T06:32:58;26.73;;;20.50;;
49626;SDS011;35527;54.616;39.786;2024-03-02T06:36:03;23.70;;;18.90;;
49626;SDS011;35527;54.616;39.786;2024-03-02T06:39:06;26.83;;;21.50;;
49626;SDS011;35527;54.616;39.786;2024-03-02T06:42:12;26.98;;;21.02;;
49626;SDS011;35527;54.616;39.786;2024-03-02T06:45:16;25.02;;;12.77;;
49626;SDS011;35527;54.616;39.786;2024-03-02T06:48:19;27.45;;;19.90;;
49626;SDS011;35527;54.616;39.786;2024-03-02T06:51:29;29.30;;;21.70;;
49626;SDS011;35527;54.616;39.786;2024-03-02T06:54:34;25.48;;;12.10;;
49626;SDS011;35527;54.616;39.786;2024-03-02T06:57:39;27.17;;;21.13;;
49626;SDS011;35527;54.616;39.786;2024-03-02T07:00:42;28.48;;;13.10;;
49626;SDS011;35527;54.616;39.786;2024-03-02T07:03:45;31.25;;;22.45;;
49626;SDS011;35527;54.616;39.786;2024-03-02T07:06:50;30.83;;;22.88;;
49626;SDS011;35527;54.616;39.786;2024-03-02T07:09:53;29.45;;;21.15;;
49626;SDS011;35527;54.616;39.786;2024-03-02T07:12:57;31.83;;;21.33;;
49626;SDS011;35527;54.616;39.786;2024-03-02T07:16:00;27.52;;;21.65;;
49626;SDS011;35527;54.616;39.786;2024-03-02T07:19:06;27.67;;;21.05;;
49626;SDS011;35527;54.616;39.786;2024-03-02T07:22:09;28.90;;;22.17;;
49626;SDS011;35527;54.616;39.786;2024-03-02T07:25:14;29.25;;;22.45;;
49626;SDS011;35527;54.616;39.786;2024-03-02T07:28:20;25.33;;;21.15;;
49626;SDS011;35527;54.616;39.786;2024-03-02T07:31:24;24.58;;;19.23;;
49626;SDS011;35527;54.616;39.786;2024-03-02T07:34:26;23.25;;;19.83;;
49626;SDS011;35527;54.616;39.786;2024-03-02T07:37:31;27.27;;;20.92;;
49626;SDS011;35527;54.616;39.786;2024-03-02T07:40:34;24.45;;;19.10;;
49626;SDS011;35527;54.616;39.786;2024-03-02T07:43:44;25.55;;;19.65;;
49626;SDS011;35527;54.616;39.786;2024-03-02T07:46:48;24.00;;;19.60;;
49626;SDS011;35527;54.616;39.786;2024-03-02T07:49:54;26.83;;;19.63;;
49626;SDS011;35527;54.616;39.786;2024-03-02T07:52:56;24.00;;;19.40;;
49626;SDS011;35527;54.616;39.786;2024-03-02T07:56:00;28.15;;;19.20;;
49626;SDS011;35527;54.616;39.786;2024-03-02T07:59:04;23.35;;;18.48;;
49626;SDS011;35527;54.616;39.786;2024-03-02T08:05:12;22.65;;;17.08;;
49626;SDS011;35527;54.616;39.786;2024-03-02T08:08:17;22.33;;;16.17;;
49626;SDS011;35527;54.616;39.786;2024-03-02T08:11:20;22.30;;;16.27;;
49626;SDS011;35527;54.616;39.786;2024-03-02T08:14:26;19.60;;;15.45;;
49626;SDS011;35527;54.616;39.786;2024-03-02T08:17:29;21.00;;;15.63;;
49626;SDS011;35527;54.616;39.786;2024-03-02T08:20:34;22.40;;;15.45;;
49626;SDS011;35527;54.616;39.786;2024-03-02T08:23:39;21.70;;;16.58;;
49626;SDS011;35527;54.616;39.786;2024-03-02T08:26:43;22.63;;;16.60;;
49626;SDS011;35527;54.616;39.786;2024-03-02T08:29:46;20.98;;;16.65;;
49626;SDS011;35527;54.616;39.786;2024-03-02T08:32:51;25.92;;;16.65;;
49626;SDS011;35527;54.616;39.786;2024-03-02T08:35:53;22.73;;;10.25;;
49626;SDS011;35527;54.616;39.786;2024-03-02T08:38:59;27.00;;;16.00;;
49626;SDS011;35527;54.616;39.786;2024-03-02T08:42:02;21.33;;;15.27;;
49626;SDS011;35527;54.616;39.786;2024-03-02T08:45:10;22.00;;;15.13;;
49626;SDS011;35527;54.616;39.786;2024-03-02T08:48:13;24.33;;;11.13;;
49626;SDS011;35527;54.616;39.786;2024-03-02T08:51:16;21.38;;;15.10;;
49626;SDS011;35527;54.616;39.786;2024-03-02T08:54:21;22.60;;;16.77;;
49626;SDS011;35527;54.616;39.786;2024-03-02T08:57:28;21.05;;;10.10;;
49626;SDS011;35527;54.616;39.786;2024-03-02T09:00:31;21.08;;;15.95;;
49626;SDS011;35527;54.616;39.786;2024-03-02T09:06:51;21.13;;;16.60;;
49626;SDS011;35527;54.616;39.786;2024-03-02T09:09:54;24.20;;;17.25;;
49626;SDS011;35527;54.616;39.786;2024-03-02T09:12:59;21.45;;;16.17;;
49626;SDS011;35527;54.616;39.786;2024-03-02T09:16:05;20.02;;;9.52;;
49626;SDS011;35527;54.616;39.786;2024-03-02T09:19:07;22.48;;;9.35;;
49626;SDS011;35527;54.616;39.786;2024-03-02T09:22:11;21.08;;;15.27;;
49626;SDS011;35527;54.616;39.786;2024-03-02T09:25:14;17.92;;;8.57;;
49626;SDS011;35527;54.616;39.786;2024-03-02T09:28:18;19.67;;;14.02;;
49626;SDS011;35527;54.616;39.786;2024-03-02T09:31:21;18.10;;;8.90;;
49626;SDS011;35527;54.616;39.786;2024-03-02T09:34:26;16.45;;;8.40;;
49626;SDS011;35527;54.616;39.786;2024-03-02T09:37:29;17.98;;;8.38;;
49626;SDS011;35527;54.616;39.786;2024-03-02T09:40:32;23.95;;;14.95;;
49626;SDS011;35527;54.616;39.786;2024-03-02T09:43:38;19.90;;;14.30;;
49626;SDS011;35527;54.616;39.786;2024-03-02T09:46:48;18.73;;;8.68;;
49626;SDS011;35527;54.616;39.786;2024-03-02T09:49:51;18.95;;;14.23;;
49626;SDS011;35527;54.616;39.786;2024-03-02T09:52:54;19.77;;;14.30;;
49626;SDS011;35527;54.616;39.786;2024-03-02T09:56:04;20.73;;;14.60;;
49626;SDS011;35527;54.616;39.786;2024-03-02T09:59:08;19.85;;;13.95;;
49626;SDS011;35527;54.616;39.786;2024-03-02T10:02:11;16.27;;;7.95;;
49626;SDS011;35527;54.616;39.786;2024-03-02T10:05:23;14.93;;;7.13;;
49626;SDS011;35527;54.616;39.786;2024-03-02T10:08:32;16.90;;;12.50;;
49626;SDS011;35527;54.616;39.786;2024-03-02T10:11:46;17.92;;;13.48;;
49626;SDS011;35527;54.616;39.786;2024-03-02T10:14:51;16.42;;;12.43;;
49626;SDS011;35527;54.616;39.786;2024-03-02T10:18:05;16.25;;;7.50;;
49626;SDS011;35527;54.616;39.786;2024-03-02T10:21:13;16.00;;;11.90;;
49626;SDS011;35527;54.616;39.786;2024-03-02T10:24:18;21.48;;;9.00;;
49626;SDS011;35527;54.616;39.786;2024-03-02T10:27:26;16.63;;;12.48;;
49626;SDS011;35527;54.616;39.786;2024-03-02T10:30:35;17.48;;;12.93;;
49626;SDS011;35527;54.616;39.786;2024-03-02T10:33:40;17.52;;;12.00;;
49626;SDS011;35527;54.616;39.786;2024-03-02T10:36:45;19.25;;;13.10;;
49626;SDS011;35527;54.616;39.786;2024-03-02T10:39:50;17.30;;;12.65;;
49626;SDS011;35527;54.616;39.786;2024-03-02T10:42:55;15.90;;;11.13;;
49626;SDS011;35527;54.616;39.786;2024-03-02T10:45:57;18.35;;;11.82;;
49626;SDS011;35527;54.616;39.786;2024-03-02T10:49:04;15.07;;;7.90;;
49626;SDS011;35527;54.616;39.786;2024-03-02T10:52:08;16.92;;;12.35;;
49626;SDS011;35527;54.616;39.786;2024-03-02T10:55:13;20.27;;;12.70;;
49626;SDS011;35527;54.616;39.786;2024-03-02T10:58:17;20.73;;;12.68;;
49626;SDS011;35527;54.616;39.786;2024-03-02T11:01:24;14.85;;;9.85;;
49626;SDS011;35527;54.616;39.786;2024-03-02T11:04:28;16.33;;;10.27;;
49626;SDS011;35527;54.616;39.786;2024-03-02T11:07:32;18.08;;;10.95;;
49626;SDS011;35527;54.616;39.786;2024-03-02T11:10:41;17.77;;;10.48;;
49626;SDS011;35527;54.616;39.786;2024-03-02T11:13:47;18.55;;;10.48;;
49626;SDS011;35527;54.616;39.786;2024-03-02T11:16:53;17.45;;;10.63;;
49626;SDS011;35527;54.616;39.786;2024-03-02T11:19:57;16.73;;;7.45;;
49626;SDS011;35527;54.616;39.786;2024-03-02T11:23:08;17.40;;;10.50;;
49626;SDS011;35527;54.616;39.786;2024-03-02T11:26:20;13.45;;;6.75;;
49626;SDS011;35527;54.616;39.786;2024-03-02T11:32:40;17.48;;;9.77;;
49626;SDS011;35527;54.616;39.786;2024-03-02T11:35:46;16.30;;;6.32;;
49626;SDS011;35527;54.616;39.786;2024-03-02T11:38:52;17.20;;;5.93;;
49626;SDS011;35527;54.616;39.786;2024-03-02T11:41:56;13.45;;;9.20;;
49626;SDS011;35527;54.616;39.786;2024-03-02T11:45:00;13.43;;;8.77;;
49626;SDS011;35527;54.616;39.786;2024-03-02T11:48:04;12.95;;;5.25;;
49626;SDS011;35527;54.616;39.786;2024-03-02T11:51:09;12.10;;;6.25;;
49626;SDS011;35527;54.616;39.786;2024-03-02T11:54:13;17.25;;;6.35;;
49626;SDS011;35527;54.616;39.786;2024-03-02T11:57:17;19.20;;;6.30;;
49626;SDS011;35527;54.616;39.786;2024-03-02T12:00:22;21.77;;;6.85;;
49626;SDS011;35527;54.616;39.786;2024-03-02T12:03:29;15.55;;;6.60;;
49626;SDS011;35527;54.616;39.786;2024-03-02T12:06:33;14.93;;;9.45;;
49626;SDS011;35527;54.616;39.786;2024-03-02T12:09:38;11.83;;;4.97;;
49626;SDS011;35527;54.616;39.786;2024-03-02T12:12:42;15.80;;;7.85;;
49626;SDS011;35527;54.616;39.786;2024-03-02T12:15:47;14.10;;;8.35;;
49626;SDS011;35527;54.616;39.786;2024-03-02T12:18:50;9.00;;;4.85;;
49626;SDS011;35527;54.616;39.786;2024-03-02T12:22:01;13.35;;;8.05;;
49626;SDS011;35527;54.616;39.786;2024-03-02T12:25:06;11.82;;;5.90;;
49626;SDS011;35527;54.616;39.786;2024-03-02T12:28:11;14.63;;;8.65;;
49626;SDS011;35527;54.616;39.786;2024-03-02T12:31:13;14.63;;;7.72;;
49626;SDS011;35527;54.616;39.786;2024-03-02T12:34:16;11.40;;;5.13;;
49626;SDS011;35527;54.616;39.786;2024-03-02T12:37:20;13.30;;;8.23;;
49626;SDS011;35527;54.616;39.786;2024-03-02T12:40:24;10.63;;;4.65;;
49626;SDS011;35527;54.616;39.786;2024-03-02T12:43:30;13.05;;;7.28;;
49626;SDS011;35527;54.616;39.786;2024-03-02T12:46:34;8.63;;;4.55;;
49626;SDS011;35527;54.616;39.786;2024-03-02T12:49:38;13.65;;;7.45;;
49626;SDS011;35527;54.616;39.786;2024-03-02T12:52:42;9.88;;;3.90;;
49626;SDS011;35527;54.616;39.786;2024-03-02T12:55:44;11.95;;;7.00;;
49626;SDS011;35527;54.616;39.786;2024-03-02T12:58:48;10.85;;;4.43;;
49626;SDS011;35527;54.616;39.786;2024-03-02T13:01:56;13.35;;;7.38;;
49626;SDS011;35527;54.616;39.786;2024-03-02T13:05:04;8.63;;;3.88;;
49626;SDS011;35527;54.616;39.786;2024-03-02T13:08:08;13.98;;;7.57;;
49626;SDS011;35527;54.616;39.786;2024-03-02T13:11:11;14.00;;;7.57;;
49626;SDS011;35527;54.616;39.786;2024-03-02T13:14:13;8.38;;;4.13;;
49626;SDS011;35527;54.616;39.786;2024-03-02T13:17:20;8.30;;;4.28;;
49626;SDS011;35527;54.616;39.786;2024-03-02T13:20:23;12.50;;;7.80;;
49626;SDS011;35527;54.616;39.786;2024-03-02T13:23:27;13.45;;;7.35;;
49626;SDS011;35527;54.616;39.786;2024-03-02T13:26:34;10.05;;;4.78;;
49626;SDS011;35527;54.616;39.786;2024-03-02T13:29:38;13.23;;;7.22;;
49626;SDS011;35527;54.616;39.786;2024-03-02T13:32:41;13.45;;;6.80;;
49626;SDS011;35527;54.616;39.786;2024-03-02T13:35:44;14.95;;;7.45;;
49626;SDS011;35527;54.616;39.786;2024-03-02T13:38:47;10.50;;;4.88;;
49626;SDS011;35527;54.616;39.786;2024-03-02T13:41:50;8.07;;;3.78;;
49626;SDS011;35527;54.616;39.786;2024-03-02T13:45:07;9.95;;;4.50;;
49626;SDS011;35527;54.616;39.786;2024-03-02T13:48:10;14.45;;;4.63;;
49626;SDS011;35527;54.616;39.786;2024-03-02T13:51:15;13.53;;;6.00;;
49626;SDS011;35527;54.616;39.786;2024-03-02T13:54:17;13.60;;;6.85;;
49626;SDS011;35527;54.616;39.786;2024-03-02T13:57:22;16.38;;;7.55;;
49626;SDS011;35527;54.616;39.786;2024-03-02T14:00:25;14.80;;;6.22;;
49626;SDS011;35527;54.616;39.786;2024-03-02T14:03:28;10.07;;;3.72;;
49626;SDS011;35527;54.616;39.786;2024-03-02T14:06:34;10.27;;;3.85;;
49626;SDS011;35527;54.616;39.786;2024-03-02T14:09:38;8.60;;;3.25;;
49626;SDS011;35527;54.616;39.786;2024-03-02T14:12:44;11.95;;;5.75;;
49626;SDS011;35527;54.616;39.786;2024-03-02T14:15:48;11.82;;;3.42;;
49626;SDS011;35527;54.616;39.786;2024-03-02T14:18:53;11.90;;;3.78;;
49626;SDS011;35527;54.616;39.786;2024-03-02T14:21:56;9.68;;;3.40;;
49626;SDS011;35527;54.616;39.786;2024-03-02T14:25:00;9.48;;;3.08;;
49626;SDS011;35527;54.616;39.786;2024-03-02T14:28:04;11.50;;;3.60;;
49626;SDS011;35527;54.616;39.786;2024-03-02T14:31:08;9.75;;;2.90;;
49626;SDS011;35527;54.616;39.786;2024-03-02T14:34:10;14.43;;;5.18;;
49626;SDS011;35527;54.616;39.786;2024-03-02T14:37:14;7.53;;;2.55;;
49626;SDS011;35527;54.616;39.786;2024-03-02T14:40:19;13.07;;;5.45;;
49626;SDS011;35527;54.616;39.786;2024-03-02T14:43:27;8.82;;;3.10;;
49626;SDS011;35527;54.616;39.786;2024-03-02T14:46:30;7.30;;;2.35;;
49626;SDS011;35527;54.616;39.786;2024-03-02T14:49:36;8.05;;;2.50;;
49626;SDS011;35527;54.616;39.786;2024-03-02T14:52:43;10.07;;;3.00;;
49626;SDS011;35527;54.616;39.786;2024-03-02T14:55:47;7.15;;;2.13;;
49626;SDS011;35527;54.616;39.786;2024-03-02T14:58:50;14.82;;;3.40;;
49626;SDS011;35527;54.616;39.786;2024-03-02T15:01:53;16.17;;;5.53;;
49626;SDS011;35527;54.616;39.786;2024-03-02T15:04:57;9.40;;;2.47;;
49626;SDS011;35527;54.616;39.786;2024-03-02T15:08:04;5.60;;;2.63;;
49626;SDS011;35527;54.616;39.786;2024-03-02T15:11:07;8.27;;;2.88;;
49626;SDS011;35527;54.616;39.786;2024-03-02T15:14:12;13.30;;;3.72;;
49626;SDS011;35527;54.616;39.786;2024-03-02T15:17:16;14.70;;;3.25;;
49626;SDS011;35527;54.616;39.786;2024-03-02T15:20:25;16.38;;;3.22;;
49626;SDS011;35527;54.616;39.786;2024-03-02T15:23:28;8.75;;;2.40;;
49626;SDS011;35527;54.616;39.786;2024-03-02T15:26:36;8.20;;;2.75;;
49626;SDS011;35527;54.616;39.786;2024-03-02T15:29:39;13.20;;;2.92;;
49626;SDS011;35527;54.616;39.786;2024-03-02T15:32:46;11.88;;;2.72;;
49626;SDS011;35527;54.616;39.786;2024-03-02T15:35:49;6.35;;;2.35;;
49626;SDS011;35527;54.616;39.786;2024-03-02T15:38:52;12.10;;;3.03;;
49626;SDS011;35527;54.616;39.786;2024-03-02T15:41:55;7.78;;;2.35;;
49626;SDS011;35527;54.616;39.786;2024-03-02T15:45:00;10.02;;;3.55;;
49626;SDS011;35527;54.616;39.786;2024-03-02T15:48:03;8.50;;;2.10;;
49626;SDS011;35527;54.616;39.786;2024-03-02T15:51:05;7.93;;;2.40;;
49626;SDS011;35527;54.616;39.786;2024-03-02T15:54:08;9.13;;;2.78;;
49626;SDS011;35527;54.616;39.786;2024-03-02T15:57:11;20.10;;;5.85;;
49626;SDS011;35527;54.616;39.786;2024-03-02T16:00:17;17.23;;;2.63;;
49626;SDS011;35527;54.616;39.786;2024-03-02T16:03:20;10.57;;;2.75;;
49626;SDS011;35527;54.616;39.786;2024-03-02T16:06:23;17.77;;;4.95;;
49626;SDS011;35527;54.616;39.786;2024-03-02T16:09:26;10.10;;;2.72;;
49626;SDS011;35527;54.616;39.786;2024-03-02T16:12:29;17.17;;;5.13;;
49626;SDS011;35527;54.616;39.786;2024-03-02T16:15:32;11.27;;;2.40;;
49626;SDS011;35527;54.616;39.786;2024-03-02T16:18:37;12.43;;;3.25;;
49626;SDS011;35527;54.616;39.786;2024-03-02T16:21:42;15.23;;;3.17;;
49626;SDS011;35527;54.616;39.786;2024-03-02T16:24:46;13.05;;;3.65;;
49626;SDS011;35527;54.616;39.786;2024-03-02T16:27:51;20.90;;;6.18;;
49626;SDS011;35527;54.616;39.786;2024-03-02T16:30:54;11.30;;;3.33;;
49626;SDS011;35527;54.616;39.786;2024-03-02T16:33:59;17.95;;;2.85;;
49626;SDS011;35527;54.616;39.786;2024-03-02T16:37:03;9.50;;;2.92;;
49626;SDS011;35527;54.616;39.786;2024-03-02T16:40:08;10.73;;;3.13;;
49626;SDS011;35527;54.616;39.786;2024-03-02T16:43:12;11.40;;;3.53;;
49626;SDS011;35527;54.616;39.786;2024-03-02T16:46:16;8.50;;;3.53;;
49626;SDS011;35527;54.616;39.786;2024-03-02T16:49:19;7.60;;;2.37;;
49626;SDS011;35527;54.616;39.786;2024-03-02T16:52:22;16.45;;;2.78;;
49626;SDS011;35527;54.616;39.786;2024-03-02T16:55:27;9.23;;;3.30;;
49626;SDS011;35527;54.616;39.786;2024-03-02T17:01:58;11.65;;;3.30;;
49626;SDS011;35527;54.616;39.786;2024-03-02T17:05:01;8.85;;;3.17;;
49626;SDS011;35527;54.616;39.786;2024-03-02T17:08:05;15.52;;;3.50;;
49626;SDS011;35527;54.616;39.786;2024-03-02T17:11:10;12.10;;;3.30;;
49626;SDS011;35527;54.616;39.786;2024-03-02T17:14:13;12.10;;;4.25;;
49626;SDS011;35527;54.616;39.786;2024-03-02T17:17:15;11.73;;;3.75;;
49626;SDS011;35527;54.616;39.786;2024-03-02T17:20:20;10.40;;;3.20;;
49626;SDS011;35527;54.616;39.786;2024-03-02T17:23:23;13.25;;;3.95;;
49626;SDS011;35527;54.616;39.786;2024-03-02T17:26:25;20.42;;;6.43;;
49626;SDS011;35527;54.616;39.786;2024-03-02T17:29:28;18.30;;;3.80;;
49626;SDS011;35527;54.616;39.786;2024-03-02T17:32:30;13.73;;;3.72;;
49626;SDS011;35527;54.616;39.786;2024-03-02T17:35:34;18.42;;;6.97;;
49626;SDS011;35527;54.616;39.786;2024-03-02T17:38:37;7.47;;;3.45;;
49626;SDS011;35527;54.616;39.786;2024-03-02T17:41:41;14.60;;;3.50;;
49626;SDS011;35527;54.616;39.786;2024-03-02T17:44:45;9.63;;;3.22;;
49626;SDS011;35527;54.616;39.786;2024-03-02T17:47:51;13.93;;;6.00;;
49626;SDS011;35527;54.616;39.786;2024-03-02T17:50:54;10.90;;;4.07;;
49626;SDS011;35527;54.616;39.786;2024-03-02T17:53:57;7.53;;;2.88;;
49626;SDS011;35527;54.616;39.786;2024-03-02T17:57:00;12.75;;;3.42;;
49626;SDS011;35527;54.616;39.786;2024-03-02T18:00:05;9.75;;;3.28;;
49626;SDS011;35527;54.616;39.786;2024-03-02T18:03:12;11.07;;;3.53;;
49626;SDS011;35527;54.616;39.786;2024-03-02T18:06:14;10.95;;;3.08;;
49626;SDS011;35527;54.616;39.786;2024-03-02T18:09:20;11.52;;;3.60;;
49626;SDS011;35527;54.616;39.786;2024-03-02T18:12:27;7.35;;;3.17;;
49626;SDS011;35527;54.616;39.786;2024-03-02T18:15:31;10.35;;;2.95;;
49626;SDS011;35527;54.616;39.786;2024-03-02T18:18:34;14.77;;;3.95;;
49626;SDS011;35527;54.616;39.786;2024-03-02T18:21:37;13.52;;;3.53;;
49626;SDS011;35527;54.616;39.786;2024-03-02T18:24:40;20.88;;;3.63;;
49626;SDS011;35527;54.616;39.786;2024-03-02T18:27:42;15.82;;;5.70;;
49626;SDS011;35527;54.616;39.786;2024-03-02T18:30:46;17.73;;;5.18;;